Lake Mills, WI (53551)

7:54 PM CST on December 04, 2016 (GMT -0600)
Cambridge | | Change Station
Active Advisory: Winter Weather Advisory Active Notice: Record Report, Local Storm Report

Elev 883 ft 43.00 °N, 89.01 °W | Updated 22 seconds ago

Light Snow
Light Snow
30.7 °F
Feels Like 31 °F
N
0.0
Wind Variable Wind from North

Today
High -- | Low -- °F
--% Chance of Precip.
Yesterday
High -- | Low -- °F
Precip. -- in
Pressure 29.84 in
Visibility 3.0 miles
Clouds Overcast 700 ft
Windchill 31 °F
Dew Point 26 °F
Humidity 84%
Rainfall 0.00 in
Snow Depth Not available.
7:11 AM 4:20 PM
Waxing Crescent, 27% visible
METAR KRYV 050135Z AUTO 21004KT 3SM -SN OVC007 M01/M01 A2984 RMK AO2 T10081008
Pressure 29.84 in
Visibility 3.0 miles
Clouds Overcast 700 ft
Windchill 31 °F
Dew Point 26 °F
Humidity 84%
Rainfall 0.00 in
Snow Depth Not available.
7:11 AM 4:20 PM
Waxing Crescent, 27% visible
METAR KRYV 050135Z AUTO 21004KT 3SM -SN OVC007 M01/M01 A2984 RMK AO2 T10081008

10-Day Weather Forecast

Almanac

Astronomy

Dec. 04, 2016 Rise Set
Actual Time
Civil Twilight
Nautical Twilight
Astronomical Twilight
Moon
Length of Visible Light
Length of Day
Tomorrow will be .
, % of the Moon is Illuminated

Today's Extremes

State Highs State Lows

Community

WunderPhotos

Upload Photos

1,955,744 photos uploaded!

WunderBlog® & News

Nearby

Air Quality

  Air Quality AQ Index Pollutant
Not available.

Snow Depth

Station Depth Elevation

Earthquake Activity

City Distance Mag. Time & Date
Minimum magnitude displayed is 2.5.

Coastal Water Temperatures

Place Temperature

Stations

Nearby Weather Stations

Station Location Temp. Windchill Dew Point Humidity Wind Precip. Elev Updated Type
                   

Watches & Warnings

Winter Weather Advisory
Issued: 5:58 PM CST Dec. 4, 2016 – National Weather Service

... Winter Weather Advisory remains in effect until 9 PM CST this
evening...

A Winter Weather Advisory remains in effect until 9 PM CST this
evening.

* Snow accumulations... additional amounts under one inch this
evening with the snow ending between 6 PM and 9 PM.

* Impacts... reduced visibility and slippery spots on untreated
roads creating hazardous travel.

Precautionary/preparedness actions...

A Winter Weather Advisory for snow means that periods of snow
will cause primarily travel difficulties. Be prepared for snow
covered roads and limited visibilities... and use caution while
driving.



Mg